sensor_id;sensor_type;location;lat;lon;timestamp;temperature;humidity
16736;DHT22;17990;49.548;9.730;2023-07-09T00:01:13;19.30;99.90
16736;DHT22;17990;49.548;9.730;2023-07-09T00:03:42;19.30;99.90
16736;DHT22;17990;49.548;9.730;2023-07-09T00:06:09;19.30;99.90
16736;DHT22;17990;49.548;9.730;2023-07-09T00:08:40;19.30;99.90
16736;DHT22;17990;49.548;9.730;2023-07-09T00:11:11;19.20;99.90
16736;DHT22;17990;49.548;9.730;2023-07-09T00:13:39;19.10;99.90
16736;DHT22;17990;49.548;9.730;2023-07-09T00:16:11;19.00;99.90
16736;DHT22;17990;49.548;9.730;2023-07-09T00:18:39;18.90;99.90
16736;DHT22;17990;49.548;9.730;2023-07-09T00:21:06;18.80;99.90
16736;DHT22;17990;49.548;9.730;2023-07-09T00:23:33;18.80;99.90
16736;DHT22;17990;49.548;9.730;2023-07-09T00:26:00;18.70;99.90
16736;DHT22;17990;49.548;9.730;2023-07-09T00:28:28;18.70;99.90
16736;DHT22;17990;49.548;9.730;2023-07-09T00:30:57;18.70;99.90
16736;DHT22;17990;49.548;9.730;2023-07-09T00:33:24;18.70;99.90
16736;DHT22;17990;49.548;9.730;2023-07-09T00:35:57;18.70;99.90
16736;DHT22;17990;49.548;9.730;2023-07-09T00:38:24;18.60;99.90
16736;DHT22;17990;49.548;9.730;2023-07-09T00:41:02;18.60;99.90
16736;DHT22;17990;49.548;9.730;2023-07-09T00:43:31;18.50;99.90
16736;DHT22;17990;49.548;9.730;2023-07-09T00:49:26;18.50;99.90
16736;DHT22;17990;49.548;9.730;2023-07-09T00:51:56;18.40;99.90
16736;DHT22;17990;49.548;9.730;2023-07-09T00:54:28;18.30;99.90
16736;DHT22;17990;49.548;9.730;2023-07-09T00:57:00;18.30;99.90
16736;DHT22;17990;49.548;9.730;2023-07-09T00:59:31;18.30;99.90
16736;DHT22;17990;49.548;9.730;2023-07-09T01:02:00;18.30;99.90
16736;DHT22;17990;49.548;9.730;2023-07-09T01:04:28;18.30;99.90
16736;DHT22;17990;49.548;9.730;2023-07-09T01:06:56;18.30;99.90
16736;DHT22;17990;49.548;9.730;2023-07-09T01:09:24;18.30;99.90
16736;DHT22;17990;49.548;9.730;2023-07-09T01:11:52;18.20;99.90
16736;DHT22;17990;49.548;9.730;2023-07-09T01:14:23;18.10;99.90
16736;DHT22;17990;49.548;9.730;2023-07-09T01:16:54;18.10;99.90
16736;DHT22;17990;49.548;9.730;2023-07-09T01:19:27;18.00;99.90
16736;DHT22;17990;49.548;9.730;2023-07-09T01:21:58;18.00;99.90
16736;DHT22;17990;49.548;9.730;2023-07-09T01:24:52;17.90;99.90
16736;DHT22;17990;49.548;9.730;2023-07-09T01:27:25;17.80;99.90
16736;DHT22;17990;49.548;9.730;2023-07-09T01:29:54;17.80;99.90
16736;DHT22;17990;49.548;9.730;2023-07-09T01:32:21;17.80;99.90
16736;DHT22;17990;49.548;9.730;2023-07-09T01:34:51;17.80;99.90
16736;DHT22;17990;49.548;9.730;2023-07-09T01:37:24;17.70;99.90
16736;DHT22;17990;49.548;9.730;2023-07-09T01:39:53;17.70;99.90
16736;DHT22;17990;49.548;9.730;2023-07-09T01:42:22;17.70;99.90
16736;DHT22;17990;49.548;9.730;2023-07-09T01:44:51;17.70;99.90
16736;DHT22;17990;49.548;9.730;2023-07-09T01:47:20;17.70;99.90
16736;DHT22;17990;49.548;9.730;2023-07-09T01:49:49;17.60;99.90
16736;DHT22;17990;49.548;9.730;2023-07-09T01:52:16;17.50;99.90
16736;DHT22;17990;49.548;9.730;2023-07-09T01:54:46;17.50;99.90
16736;DHT22;17990;49.548;9.730;2023-07-09T01:57:17;17.50;99.90
16736;DHT22;17990;49.548;9.730;2023-07-09T01:59:49;17.50;99.90
16736;DHT22;17990;49.548;9.730;2023-07-09T02:02:16;17.50;99.90
16736;DHT22;17990;49.548;9.730;2023-07-09T02:04:50;17.40;99.90
16736;DHT22;17990;49.548;9.730;2023-07-09T02:07:19;17.40;99.90
16736;DHT22;17990;49.548;9.730;2023-07-09T02:09:48;17.40;99.90
16736;DHT22;17990;49.548;9.730;2023-07-09T02:12:18;17.30;99.90
16736;DHT22;17990;49.548;9.730;2023-07-09T02:14:45;17.40;99.90
16736;DHT22;17990;49.548;9.730;2023-07-09T02:17:14;17.40;99.90
16736;DHT22;17990;49.548;9.730;2023-07-09T02:19:41;17.40;99.90
16736;DHT22;17990;49.548;9.730;2023-07-09T02:22:09;17.30;99.90
16736;DHT22;17990;49.548;9.730;2023-07-09T02:24:37;17.30;99.90
16736;DHT22;17990;49.548;9.730;2023-07-09T02:27:08;17.20;99.90
16736;DHT22;17990;49.548;9.730;2023-07-09T02:29:36;17.20;99.90
16736;DHT22;17990;49.548;9.730;2023-07-09T02:32:04;17.20;99.90
16736;DHT22;17990;49.548;9.730;2023-07-09T02:34:32;17.20;99.90
16736;DHT22;17990;49.548;9.730;2023-07-09T02:37:01;17.10;99.90
16736;DHT22;17990;49.548;9.730;2023-07-09T02:39:28;17.10;99.90
16736;DHT22;17990;49.548;9.730;2023-07-09T02:41:55;17.10;99.90
16736;DHT22;17990;49.548;9.730;2023-07-09T02:44:23;17.20;99.90
16736;DHT22;17990;49.548;9.730;2023-07-09T02:46:50;17.10;99.90
16736;DHT22;17990;49.548;9.730;2023-07-09T02:49:18;17.00;99.90
16736;DHT22;17990;49.548;9.730;2023-07-09T02:51:45;17.00;99.90
16736;DHT22;17990;49.548;9.730;2023-07-09T02:54:12;16.90;99.90
16736;DHT22;17990;49.548;9.730;2023-07-09T02:56:39;16.90;99.90
16736;DHT22;17990;49.548;9.730;2023-07-09T02:59:06;16.80;99.90
16736;DHT22;17990;49.548;9.730;2023-07-09T03:01:34;16.70;99.90
16736;DHT22;17990;49.548;9.730;2023-07-09T03:04:02;16.70;99.90
16736;DHT22;17990;49.548;9.730;2023-07-09T03:06:30;16.70;99.90
16736;DHT22;17990;49.548;9.730;2023-07-09T03:09:00;16.70;99.90
16736;DHT22;17990;49.548;9.730;2023-07-09T03:11:29;16.80;99.90
16736;DHT22;17990;49.548;9.730;2023-07-09T03:13:57;16.80;99.90
16736;DHT22;17990;49.548;9.730;2023-07-09T03:16:26;16.80;99.90
16736;DHT22;17990;49.548;9.730;2023-07-09T03:18:56;16.80;99.90
16736;DHT22;17990;49.548;9.730;2023-07-09T03:21:23;16.70;99.90
16736;DHT22;17990;49.548;9.730;2023-07-09T03:23:51;16.70;99.90
16736;DHT22;17990;49.548;9.730;2023-07-09T03:26:19;16.70;99.90
16736;DHT22;17990;49.548;9.730;2023-07-09T03:28:46;16.70;99.90
16736;DHT22;17990;49.548;9.730;2023-07-09T03:31:13;16.70;99.90
16736;DHT22;17990;49.548;9.730;2023-07-09T03:33:40;16.70;99.90
16736;DHT22;17990;49.548;9.730;2023-07-09T03:36:08;16.70;99.90
16736;DHT22;17990;49.548;9.730;2023-07-09T03:38:35;16.70;99.90
16736;DHT22;17990;49.548;9.730;2023-07-09T03:41:02;16.70;99.90
16736;DHT22;17990;49.548;9.730;2023-07-09T03:43:29;16.70;99.90
16736;DHT22;17990;49.548;9.730;2023-07-09T03:45:56;16.80;99.90
16736;DHT22;17990;49.548;9.730;2023-07-09T03:48:23;16.90;99.90
16736;DHT22;17990;49.548;9.730;2023-07-09T03:50:50;16.90;99.90
16736;DHT22;17990;49.548;9.730;2023-07-09T03:53:18;17.00;99.90
16736;DHT22;17990;49.548;9.730;2023-07-09T03:55:46;17.00;99.90
16736;DHT22;17990;49.548;9.730;2023-07-09T03:58:13;17.10;99.90
16736;DHT22;17990;49.548;9.730;2023-07-09T04:00:40;17.10;99.90
16736;DHT22;17990;49.548;9.730;2023-07-09T04:03:07;17.20;99.90
16736;DHT22;17990;49.548;9.730;2023-07-09T04:05:35;17.20;99.90
16736;DHT22;17990;49.548;9.730;2023-07-09T04:08:03;17.20;99.90
16736;DHT22;17990;49.548;9.730;2023-07-09T04:10:32;17.20;99.90
16736;DHT22;17990;49.548;9.730;2023-07-09T04:12:59;17.20;99.90
16736;DHT22;17990;49.548;9.730;2023-07-09T04:15:26;17.20;99.90
16736;DHT22;17990;49.548;9.730;2023-07-09T04:17:53;17.30;99.90
16736;DHT22;17990;49.548;9.730;2023-07-09T04:20:20;17.30;99.90
16736;DHT22;17990;49.548;9.730;2023-07-09T04:22:47;17.30;99.90
16736;DHT22;17990;49.548;9.730;2023-07-09T04:25:15;17.40;99.90
16736;DHT22;17990;49.548;9.730;2023-07-09T04:27:43;17.40;99.90
16736;DHT22;17990;49.548;9.730;2023-07-09T04:30:12;17.40;99.90
16736;DHT22;17990;49.548;9.730;2023-07-09T04:32:41;17.50;99.90
16736;DHT22;17990;49.548;9.730;2023-07-09T04:35:10;17.60;99.90
16736;DHT22;17990;49.548;9.730;2023-07-09T04:37:38;17.60;99.90
16736;DHT22;17990;49.548;9.730;2023-07-09T04:40:06;17.60;99.90
16736;DHT22;17990;49.548;9.730;2023-07-09T04:42:36;17.70;99.90
16736;DHT22;17990;49.548;9.730;2023-07-09T04:45:08;17.70;99.90
16736;DHT22;17990;49.548;9.730;2023-07-09T04:47:37;17.80;99.90
16736;DHT22;17990;49.548;9.730;2023-07-09T04:50:06;17.80;99.90
16736;DHT22;17990;49.548;9.730;2023-07-09T04:52:34;17.90;99.90
16736;DHT22;17990;49.548;9.730;2023-07-09T04:55:01;18.00;99.90
16736;DHT22;17990;49.548;9.730;2023-07-09T04:57:28;18.20;99.90
16736;DHT22;17990;49.548;9.730;2023-07-09T04:59:55;18.30;99.90
16736;DHT22;17990;49.548;9.730;2023-07-09T05:02:23;18.50;99.90
16736;DHT22;17990;49.548;9.730;2023-07-09T05:04:51;18.50;99.90
16736;DHT22;17990;49.548;9.730;2023-07-09T05:07:18;18.50;99.90
16736;DHT22;17990;49.548;9.730;2023-07-09T05:09:45;18.70;99.90
16736;DHT22;17990;49.548;9.730;2023-07-09T05:12:12;18.70;99.90
16736;DHT22;17990;49.548;9.730;2023-07-09T05:14:40;18.80;99.90
16736;DHT22;17990;49.548;9.730;2023-07-09T05:17:07;18.90;99.90
16736;DHT22;17990;49.548;9.730;2023-07-09T05:19:36;19.10;99.90
16736;DHT22;17990;49.548;9.730;2023-07-09T05:22:03;19.20;99.90
16736;DHT22;17990;49.548;9.730;2023-07-09T05:24:30;19.30;99.90
16736;DHT22;17990;49.548;9.730;2023-07-09T05:26:57;19.90;99.90
16736;DHT22;17990;49.548;9.730;2023-07-09T05:29:24;22.70;99.90
16736;DHT22;17990;49.548;9.730;2023-07-09T05:31:52;25.30;99.90
16736;DHT22;17990;49.548;9.730;2023-07-09T05:34:19;27.00;99.90
16736;DHT22;17990;49.548;9.730;2023-07-09T05:36:48;28.50;99.90
16736;DHT22;17990;49.548;9.730;2023-07-09T05:39:15;29.60;95.70
16736;DHT22;17990;49.548;9.730;2023-07-09T05:41:42;30.10;92.40
16736;DHT22;17990;49.548;9.730;2023-07-09T05:44:09;31.00;90.00
16736;DHT22;17990;49.548;9.730;2023-07-09T05:46:36;31.10;87.30
16736;DHT22;17990;49.548;9.730;2023-07-09T05:49:04;32.00;84.00
16736;DHT22;17990;49.548;9.730;2023-07-09T05:51:32;32.90;79.20
16736;DHT22;17990;49.548;9.730;2023-07-09T05:54:00;32.70;76.50
16736;DHT22;17990;49.548;9.730;2023-07-09T05:56:28;33.30;73.90
16736;DHT22;17990;49.548;9.730;2023-07-09T05:58:55;34.30;71.10
16736;DHT22;17990;49.548;9.730;2023-07-09T06:01:22;34.50;69.30
16736;DHT22;17990;49.548;9.730;2023-07-09T06:03:49;35.10;67.20
16736;DHT22;17990;49.548;9.730;2023-07-09T06:06:16;35.20;65.90
16736;DHT22;17990;49.548;9.730;2023-07-09T06:08:43;35.20;64.80
16736;DHT22;17990;49.548;9.730;2023-07-09T06:11:13;35.40;63.60
16736;DHT22;17990;49.548;9.730;2023-07-09T06:13:40;35.70;62.80
16736;DHT22;17990;49.548;9.730;2023-07-09T06:16:07;36.80;60.10
16736;DHT22;17990;49.548;9.730;2023-07-09T06:18:34;37.50;58.80
16736;DHT22;17990;49.548;9.730;2023-07-09T06:21:02;36.90;58.50
16736;DHT22;17990;49.548;9.730;2023-07-09T06:23:30;37.40;57.20
16736;DHT22;17990;49.548;9.730;2023-07-09T06:25:58;37.90;56.40
16736;DHT22;17990;49.548;9.730;2023-07-09T06:28:27;38.40;55.20
16736;DHT22;17990;49.548;9.730;2023-07-09T06:30:55;39.00;54.50
16736;DHT22;17990;49.548;9.730;2023-07-09T06:33:24;39.00;53.20
16736;DHT22;17990;49.548;9.730;2023-07-09T06:35:57;39.70;52.40
16736;DHT22;17990;49.548;9.730;2023-07-09T06:38:25;40.10;50.60
16736;DHT22;17990;49.548;9.730;2023-07-09T06:40:52;40.40;49.90
16736;DHT22;17990;49.548;9.730;2023-07-09T06:43:20;40.40;49.70
16736;DHT22;17990;49.548;9.730;2023-07-09T06:45:56;40.80;48.80
16736;DHT22;17990;49.548;9.730;2023-07-09T06:48:24;41.10;48.30
16736;DHT22;17990;49.548;9.730;2023-07-09T06:50:53;41.50;47.90
16736;DHT22;17990;49.548;9.730;2023-07-09T06:53:22;41.70;47.40
16736;DHT22;17990;49.548;9.730;2023-07-09T06:55:49;41.70;47.00
16736;DHT22;17990;49.548;9.730;2023-07-09T06:58:18;42.30;46.10
16736;DHT22;17990;49.548;9.730;2023-07-09T07:00:47;41.90;46.60
16736;DHT22;17990;49.548;9.730;2023-07-09T07:03:16;42.60;46.20
16736;DHT22;17990;49.548;9.730;2023-07-09T07:05:44;42.70;45.40
16736;DHT22;17990;49.548;9.730;2023-07-09T07:08:13;42.50;45.60
16736;DHT22;17990;49.548;9.730;2023-07-09T07:10:41;43.00;45.50
16736;DHT22;17990;49.548;9.730;2023-07-09T07:13:09;43.30;44.70
16736;DHT22;17990;49.548;9.730;2023-07-09T07:15:36;43.10;44.80
16736;DHT22;17990;49.548;9.730;2023-07-09T07:18:04;42.90;44.60
16736;DHT22;17990;49.548;9.730;2023-07-09T07:20:33;43.70;44.00
16736;DHT22;17990;49.548;9.730;2023-07-09T07:23:00;44.00;43.80
16736;DHT22;17990;49.548;9.730;2023-07-09T07:25:27;44.40;43.70
16736;DHT22;17990;49.548;9.730;2023-07-09T07:27:55;44.40;42.90
16736;DHT22;17990;49.548;9.730;2023-07-09T07:30:22;44.20;43.20
16736;DHT22;17990;49.548;9.730;2023-07-09T07:32:49;44.10;43.40
16736;DHT22;17990;49.548;9.730;2023-07-09T07:35:16;43.80;43.00
16736;DHT22;17990;49.548;9.730;2023-07-09T07:37:46;44.40;42.60
16736;DHT22;17990;49.548;9.730;2023-07-09T07:40:13;44.70;42.50
16736;DHT22;17990;49.548;9.730;2023-07-09T07:42:40;45.00;41.20
16736;DHT22;17990;49.548;9.730;2023-07-09T07:45:07;44.30;41.80
16736;DHT22;17990;49.548;9.730;2023-07-09T07:47:35;44.50;41.70
16736;DHT22;17990;49.548;9.730;2023-07-09T07:50:02;44.60;41.40
16736;DHT22;17990;49.548;9.730;2023-07-09T07:52:29;44.80;41.10
16736;DHT22;17990;49.548;9.730;2023-07-09T07:54:58;44.80;40.60
16736;DHT22;17990;49.548;9.730;2023-07-09T07:57:26;44.80;40.60
16736;DHT22;17990;49.548;9.730;2023-07-09T07:59:53;44.90;41.00
16736;DHT22;17990;49.548;9.730;2023-07-09T08:02:20;44.90;40.60
16736;DHT22;17990;49.548;9.730;2023-07-09T08:04:47;45.00;40.10
16736;DHT22;17990;49.548;9.730;2023-07-09T08:07:14;45.10;39.80
16736;DHT22;17990;49.548;9.730;2023-07-09T08:09:40;45.10;39.70
16736;DHT22;17990;49.548;9.730;2023-07-09T08:12:10;44.80;39.70
16736;DHT22;17990;49.548;9.730;2023-07-09T08:14:39;44.90;39.00
16736;DHT22;17990;49.548;9.730;2023-07-09T08:17:07;44.60;39.00
16736;DHT22;17990;49.548;9.730;2023-07-09T08:19:44;44.40;38.90
16736;DHT22;17990;49.548;9.730;2023-07-09T08:22:12;44.20;39.90
16736;DHT22;17990;49.548;9.730;2023-07-09T08:24:40;43.80;40.50
16736;DHT22;17990;49.548;9.730;2023-07-09T08:27:09;43.60;40.70
16736;DHT22;17990;49.548;9.730;2023-07-09T08:29:36;43.10;41.00
16736;DHT22;17990;49.548;9.730;2023-07-09T08:32:03;42.90;41.20
16736;DHT22;17990;49.548;9.730;2023-07-09T08:34:31;42.70;41.50
16736;DHT22;17990;49.548;9.730;2023-07-09T08:36:58;42.70;41.60
16736;DHT22;17990;49.548;9.730;2023-07-09T08:39:26;42.30;41.40
16736;DHT22;17990;49.548;9.730;2023-07-09T08:41:55;42.20;41.70
16736;DHT22;17990;49.548;9.730;2023-07-09T08:44:49;41.80;42.30
16736;DHT22;17990;49.548;9.730;2023-07-09T08:47:33;41.50;42.30
16736;DHT22;17990;49.548;9.730;2023-07-09T08:50:09;41.30;42.30
16736;DHT22;17990;49.548;9.730;2023-07-09T08:52:39;41.20;42.00
16736;DHT22;17990;49.548;9.730;2023-07-09T08:55:11;41.10;42.20
16736;DHT22;17990;49.548;9.730;2023-07-09T08:57:41;40.80;42.30
16736;DHT22;17990;49.548;9.730;2023-07-09T09:00:17;40.70;41.80
16736;DHT22;17990;49.548;9.730;2023-07-09T09:02:49;40.70;41.80
16736;DHT22;17990;49.548;9.730;2023-07-09T09:05:20;40.60;41.20
16736;DHT22;17990;49.548;9.730;2023-07-09T09:07:54;40.30;41.00
16736;DHT22;17990;49.548;9.730;2023-07-09T09:10:29;40.40;41.40
16736;DHT22;17990;49.548;9.730;2023-07-09T09:13:11;40.20;42.00
16736;DHT22;17990;49.548;9.730;2023-07-09T09:15:44;40.20;42.10
16736;DHT22;17990;49.548;9.730;2023-07-09T09:18:23;39.90;42.30
16736;DHT22;17990;49.548;9.730;2023-07-09T09:20:57;39.60;42.90
16736;DHT22;17990;49.548;9.730;2023-07-09T09:23:29;39.50;43.30
16736;DHT22;17990;49.548;9.730;2023-07-09T09:26:09;39.40;43.90
16736;DHT22;17990;49.548;9.730;2023-07-09T09:28:42;39.40;43.70
16736;DHT22;17990;49.548;9.730;2023-07-09T09:31:11;39.10;43.70
16736;DHT22;17990;49.548;9.730;2023-07-09T09:33:41;39.10;43.80
16736;DHT22;17990;49.548;9.730;2023-07-09T09:36:15;38.90;44.10
16736;DHT22;17990;49.548;9.730;2023-07-09T09:38:43;38.60;44.50
16736;DHT22;17990;49.548;9.730;2023-07-09T09:41:15;38.60;44.70
16736;DHT22;17990;49.548;9.730;2023-07-09T09:43:45;38.30;45.00
16736;DHT22;17990;49.548;9.730;2023-07-09T09:46:19;37.60;46.40
16736;DHT22;17990;49.548;9.730;2023-07-09T09:48:53;37.70;46.50
16736;DHT22;17990;49.548;9.730;2023-07-09T09:51:23;37.60;45.70
16736;DHT22;17990;49.548;9.730;2023-07-09T09:53:52;37.00;46.50
16736;DHT22;17990;49.548;9.730;2023-07-09T09:56:27;36.90;47.00
16736;DHT22;17990;49.548;9.730;2023-07-09T09:58:56;36.70;47.10
16736;DHT22;17990;49.548;9.730;2023-07-09T10:01:29;36.70;47.00
16736;DHT22;17990;49.548;9.730;2023-07-09T10:03:59;36.30;47.70
16736;DHT22;17990;49.548;9.730;2023-07-09T10:06:33;36.10;47.50
16736;DHT22;17990;49.548;9.730;2023-07-09T10:09:06;36.00;47.10
16736;DHT22;17990;49.548;9.730;2023-07-09T10:11:47;36.00;47.30
16736;DHT22;17990;49.548;9.730;2023-07-09T10:14:31;35.50;47.80
16736;DHT22;17990;49.548;9.730;2023-07-09T10:17:09;35.60;48.50
16736;DHT22;17990;49.548;9.730;2023-07-09T10:19:48;35.60;48.40
16736;DHT22;17990;49.548;9.730;2023-07-09T10:22:28;35.60;48.20
16736;DHT22;17990;49.548;9.730;2023-07-09T10:25:14;35.40;48.50
16736;DHT22;17990;49.548;9.730;2023-07-09T10:27:57;35.50;48.60
16736;DHT22;17990;49.548;9.730;2023-07-09T10:30:48;35.50;48.80
16736;DHT22;17990;49.548;9.730;2023-07-09T10:33:25;35.60;49.00
16736;DHT22;17990;49.548;9.730;2023-07-09T10:36:00;35.70;48.70
16736;DHT22;17990;49.548;9.730;2023-07-09T10:38:41;35.70;48.80
16736;DHT22;17990;49.548;9.730;2023-07-09T10:41:12;35.60;49.10
16736;DHT22;17990;49.548;9.730;2023-07-09T10:43:45;35.50;49.30
16736;DHT22;17990;49.548;9.730;2023-07-09T10:46:17;35.40;49.60
16736;DHT22;17990;49.548;9.730;2023-07-09T10:48:50;35.50;50.00
16736;DHT22;17990;49.548;9.730;2023-07-09T10:51:22;35.50;49.50
16736;DHT22;17990;49.548;9.730;2023-07-09T10:53:57;35.70;49.50
16736;DHT22;17990;49.548;9.730;2023-07-09T10:56:27;35.70;48.80
16736;DHT22;17990;49.548;9.730;2023-07-09T10:59:01;35.30;49.30
16736;DHT22;17990;49.548;9.730;2023-07-09T11:01:40;35.10;49.60
16736;DHT22;17990;49.548;9.730;2023-07-09T11:04:20;35.10;49.30
16736;DHT22;17990;49.548;9.730;2023-07-09T11:06:56;35.10;49.30
16736;DHT22;17990;49.548;9.730;2023-07-09T11:09:29;35.30;49.30
16736;DHT22;17990;49.548;9.730;2023-07-09T11:12:00;35.60;47.40
16736;DHT22;17990;49.548;9.730;2023-07-09T11:14:33;35.30;47.80
16736;DHT22;17990;49.548;9.730;2023-07-09T11:17:04;35.30;47.70
16736;DHT22;17990;49.548;9.730;2023-07-09T11:19:41;35.40;47.70
16736;DHT22;17990;49.548;9.730;2023-07-09T11:22:16;35.30;47.70
16736;DHT22;17990;49.548;9.730;2023-07-09T11:24:48;35.30;47.70
16736;DHT22;17990;49.548;9.730;2023-07-09T11:27:18;35.60;47.40
16736;DHT22;17990;49.548;9.730;2023-07-09T11:29:48;35.80;47.60
16736;DHT22;17990;49.548;9.730;2023-07-09T11:32:23;35.90;47.80
16736;DHT22;17990;49.548;9.730;2023-07-09T11:34:52;36.20;47.10
16736;DHT22;17990;49.548;9.730;2023-07-09T11:37:24;36.30;46.60
16736;DHT22;17990;49.548;9.730;2023-07-09T11:39:52;36.40;46.90
16736;DHT22;17990;49.548;9.730;2023-07-09T11:42:30;36.40;47.40
16736;DHT22;17990;49.548;9.730;2023-07-09T11:45:05;36.50;46.50
16736;DHT22;17990;49.548;9.730;2023-07-09T11:47:39;36.50;47.30
16736;DHT22;17990;49.548;9.730;2023-07-09T11:50:20;36.60;46.80
16736;DHT22;17990;49.548;9.730;2023-07-09T11:52:52;36.70;46.70
16736;DHT22;17990;49.548;9.730;2023-07-09T11:55:26;36.70;46.40
16736;DHT22;17990;49.548;9.730;2023-07-09T11:57:56;36.80;46.70
16736;DHT22;17990;49.548;9.730;2023-07-09T12:00:26;37.00;46.10
16736;DHT22;17990;49.548;9.730;2023-07-09T12:02:55;37.00;45.50
16736;DHT22;17990;49.548;9.730;2023-07-09T12:05:28;37.00;45.40
16736;DHT22;17990;49.548;9.730;2023-07-09T12:07:56;37.00;45.20
16736;DHT22;17990;49.548;9.730;2023-07-09T12:10:27;37.00;45.70
16736;DHT22;17990;49.548;9.730;2023-07-09T12:12:56;37.00;46.20
16736;DHT22;17990;49.548;9.730;2023-07-09T12:15:26;37.20;46.30
16736;DHT22;17990;49.548;9.730;2023-07-09T12:17:56;37.20;45.90
16736;DHT22;17990;49.548;9.730;2023-07-09T12:20:25;37.10;46.30
16736;DHT22;17990;49.548;9.730;2023-07-09T12:22:56;37.10;46.50
16736;DHT22;17990;49.548;9.730;2023-07-09T12:25:27;37.20;45.80
16736;DHT22;17990;49.548;9.730;2023-07-09T12:27:55;37.10;45.60
16736;DHT22;17990;49.548;9.730;2023-07-09T12:30:24;36.80;45.60
16736;DHT22;17990;49.548;9.730;2023-07-09T12:32:51;36.60;46.10
16736;DHT22;17990;49.548;9.730;2023-07-09T12:35:19;36.70;46.90
16736;DHT22;17990;49.548;9.730;2023-07-09T12:37:50;36.70;46.60
16736;DHT22;17990;49.548;9.730;2023-07-09T12:40:21;37.00;46.20
16736;DHT22;17990;49.548;9.730;2023-07-09T12:42:49;37.30;46.60
16736;DHT22;17990;49.548;9.730;2023-07-09T12:45:18;37.40;45.90
16736;DHT22;17990;49.548;9.730;2023-07-09T12:47:47;37.60;45.30
16736;DHT22;17990;49.548;9.730;2023-07-09T12:50:22;37.40;44.90
16736;DHT22;17990;49.548;9.730;2023-07-09T12:53:00;37.20;44.60
16736;DHT22;17990;49.548;9.730;2023-07-09T12:55:29;37.00;44.60
16736;DHT22;17990;49.548;9.730;2023-07-09T12:58:02;36.90;45.60
16736;DHT22;17990;49.548;9.730;2023-07-09T13:00:30;37.10;45.30
16736;DHT22;17990;49.548;9.730;2023-07-09T13:02:58;37.20;44.70
16736;DHT22;17990;49.548;9.730;2023-07-09T13:05:26;37.10;45.30
16736;DHT22;17990;49.548;9.730;2023-07-09T13:07:57;37.30;45.20
16736;DHT22;17990;49.548;9.730;2023-07-09T13:10:28;37.40;45.50
16736;DHT22;17990;49.548;9.730;2023-07-09T13:12:57;37.50;44.40
16736;DHT22;17990;49.548;9.730;2023-07-09T13:15:29;37.20;44.50
16736;DHT22;17990;49.548;9.730;2023-07-09T13:18:08;37.20;44.70
16736;DHT22;17990;49.548;9.730;2023-07-09T13:20:38;37.10;44.70
16736;DHT22;17990;49.548;9.730;2023-07-09T13:23:11;37.10;44.40
16736;DHT22;17990;49.548;9.730;2023-07-09T13:25:40;37.00;44.70
16736;DHT22;17990;49.548;9.730;2023-07-09T13:28:18;37.00;44.70
16736;DHT22;17990;49.548;9.730;2023-07-09T13:30:46;37.20;45.20
16736;DHT22;17990;49.548;9.730;2023-07-09T13:33:13;37.20;45.20
16736;DHT22;17990;49.548;9.730;2023-07-09T13:35:41;37.20;44.10
16736;DHT22;17990;49.548;9.730;2023-07-09T13:38:14;37.30;43.20
16736;DHT22;17990;49.548;9.730;2023-07-09T13:40:43;37.10;43.00
16736;DHT22;17990;49.548;9.730;2023-07-09T13:43:12;37.00;43.10
16736;DHT22;17990;49.548;9.730;2023-07-09T13:45:40;37.20;43.20
16736;DHT22;17990;49.548;9.730;2023-07-09T13:48:13;37.20;43.40
16736;DHT22;17990;49.548;9.730;2023-07-09T13:50:42;37.30;43.60
16736;DHT22;17990;49.548;9.730;2023-07-09T13:53:20;37.50;44.00
16736;DHT22;17990;49.548;9.730;2023-07-09T13:55:48;37.60;43.50
16736;DHT22;17990;49.548;9.730;2023-07-09T13:58:18;37.60;43.90
16736;DHT22;17990;49.548;9.730;2023-07-09T14:00:48;37.50;43.90
16736;DHT22;17990;49.548;9.730;2023-07-09T14:03:19;37.60;44.20
16736;DHT22;17990;49.548;9.730;2023-07-09T14:05:48;37.50;44.40
16736;DHT22;17990;49.548;9.730;2023-07-09T14:08:17;37.50;44.80
16736;DHT22;17990;49.548;9.730;2023-07-09T14:10:46;37.70;44.00
16736;DHT22;17990;49.548;9.730;2023-07-09T14:13:14;37.90;44.20
16736;DHT22;17990;49.548;9.730;2023-07-09T14:15:42;38.00;43.40
16736;DHT22;17990;49.548;9.730;2023-07-09T14:18:11;38.00;43.10
16736;DHT22;17990;49.548;9.730;2023-07-09T14:20:40;37.90;42.90
16736;DHT22;17990;49.548;9.730;2023-07-09T14:23:10;37.80;43.50
16736;DHT22;17990;49.548;9.730;2023-07-09T14:25:39;37.90;43.50
16736;DHT22;17990;49.548;9.730;2023-07-09T14:28:10;37.80;43.40
16736;DHT22;17990;49.548;9.730;2023-07-09T14:30:39;38.00;42.30
16736;DHT22;17990;49.548;9.730;2023-07-09T14:33:12;38.00;42.60
16736;DHT22;17990;49.548;9.730;2023-07-09T14:35:41;38.10;42.40
16736;DHT22;17990;49.548;9.730;2023-07-09T14:38:16;38.10;42.30
16736;DHT22;17990;49.548;9.730;2023-07-09T14:40:47;38.00;42.50
16736;DHT22;17990;49.548;9.730;2023-07-09T14:43:15;37.90;42.70
16736;DHT22;17990;49.548;9.730;2023-07-09T14:45:43;37.90;42.70
16736;DHT22;17990;49.548;9.730;2023-07-09T14:48:11;37.80;42.90
16736;DHT22;17990;49.548;9.730;2023-07-09T14:50:39;37.60;42.40
16736;DHT22;17990;49.548;9.730;2023-07-09T14:53:12;37.60;42.60
16736;DHT22;17990;49.548;9.730;2023-07-09T14:55:41;37.70;43.20
16736;DHT22;17990;49.548;9.730;2023-07-09T14:58:15;37.70;42.70
16736;DHT22;17990;49.548;9.730;2023-07-09T15:00:43;37.80;42.80
16736;DHT22;17990;49.548;9.730;2023-07-09T15:03:19;37.80;42.80
16736;DHT22;17990;49.548;9.730;2023-07-09T15:05:47;37.90;41.90
16736;DHT22;17990;49.548;9.730;2023-07-09T15:08:15;37.70;42.10
16736;DHT22;17990;49.548;9.730;2023-07-09T15:10:43;37.60;42.30
16736;DHT22;17990;49.548;9.730;2023-07-09T15:13:17;37.60;42.60
16736;DHT22;17990;49.548;9.730;2023-07-09T15:15:46;37.70;42.90
16736;DHT22;17990;49.548;9.730;2023-07-09T15:18:14;37.70;42.30
16736;DHT22;17990;49.548;9.730;2023-07-09T15:20:47;37.70;42.60
16736;DHT22;17990;49.548;9.730;2023-07-09T15:23:16;37.60;43.10
16736;DHT22;17990;49.548;9.730;2023-07-09T15:25:43;37.60;44.10
16736;DHT22;17990;49.548;9.730;2023-07-09T15:28:11;37.40;43.30
16736;DHT22;17990;49.548;9.730;2023-07-09T15:30:39;37.40;43.30
16736;DHT22;17990;49.548;9.730;2023-07-09T15:33:13;37.40;42.90
16736;DHT22;17990;49.548;9.730;2023-07-09T15:35:41;37.50;42.70
16736;DHT22;17990;49.548;9.730;2023-07-09T15:38:26;37.50;42.40
16736;DHT22;17990;49.548;9.730;2023-07-09T15:40:55;37.50;42.00
16736;DHT22;17990;49.548;9.730;2023-07-09T15:43:22;37.40;42.20
16736;DHT22;17990;49.548;9.730;2023-07-09T15:45:53;37.40;42.30
16736;DHT22;17990;49.548;9.730;2023-07-09T15:48:25;37.30;42.70
16736;DHT22;17990;49.548;9.730;2023-07-09T15:50:53;37.10;43.00